createdAt,value
2018-08-10T00:00:00.390Z,4.00
2018-08-10T00:01:00.442Z,4.00
2018-08-10T00:02:00.502Z,4.00
2018-08-10T00:03:00.527Z,4.00
2018-08-10T00:04:00.575Z,4.00
2018-08-10T00:05:00.614Z,4.00
2018-08-10T00:06:00.676Z,4.00
2018-08-10T00:07:00.718Z,4.00
2018-08-10T00:08:00.745Z,4.00
2018-08-10T00:09:00.818Z,4.00
2018-08-10T00:10:00.849Z,4.00
2018-08-10T00:11:01.089Z,4.00
2018-08-10T00:12:00.928Z,4.00
2018-08-10T00:13:00.970Z,4.00
2018-08-10T00:14:01.026Z,4.00
2018-08-10T00:15:01.071Z,4.00
2018-08-10T00:16:01.098Z,4.00
2018-08-10T00:17:01.250Z,4.00
2018-08-10T00:18:01.189Z,4.00
2018-08-10T00:19:01.221Z,4.00
2018-08-10T00:20:01.260Z,4.00
2018-08-10T00:21:01.335Z,4.00
2018-08-10T00:22:01.362Z,4.00
2018-08-10T00:23:01.406Z,4.00
2018-08-10T00:24:01.441Z,4.00
2018-08-10T00:25:01.498Z,4.00
2018-08-10T00:26:01.536Z,4.00
2018-08-10T00:27:01.586Z,4.00
2018-08-10T00:28:01.604Z,4.00
2018-08-10T00:29:01.665Z,4.00
2018-08-10T00:30:01.704Z,4.00
2018-08-10T00:31:01.767Z,4.00
2018-08-10T00:32:01.822Z,4.00
2018-08-10T00:33:01.992Z,4.00
2018-08-10T00:34:01.866Z,4.00
2018-08-10T00:35:01.939Z,4.00
2018-08-10T00:36:01.986Z,4.00
2018-08-10T00:37:02.007Z,4.00
2018-08-10T00:38:02.067Z,0.00
2018-08-10T00:39:02.085Z,0.00
2018-08-10T00:40:02.245Z,0.00
2018-08-10T00:41:02.187Z,0.00
2018-08-10T00:42:02.229Z,0.00
2018-08-10T00:43:02.273Z,0.00
2018-08-10T00:44:02.313Z,0.00
2018-08-10T00:45:02.378Z,0.00
2018-08-10T00:46:02.516Z,0.00
2018-08-10T00:47:02.477Z,0.00
2018-08-10T00:48:02.530Z,0.00
2018-08-10T00:49:02.522Z,0.00
2018-08-10T00:50:02.608Z,0.00
2018-08-10T00:51:02.618Z,0.00
2018-08-10T00:52:02.669Z,0.00
2018-08-10T00:53:02.701Z,0.00
2018-08-10T00:54:02.793Z,0.00
2018-08-10T00:55:02.827Z,0.00
2018-08-10T00:56:02.844Z,0.00
2018-08-10T00:57:02.882Z,0.00
2018-08-10T00:58:03.044Z,0.00
2018-08-10T00:59:02.976Z,0.00
2018-08-10T01:00:03.008Z,0.00
2018-08-10T01:01:03.063Z,0.00
2018-08-10T01:02:03.098Z,0.00
2018-08-10T01:03:03.144Z,0.00
2018-08-10T01:04:03.293Z,0.00
2018-08-10T01:05:03.245Z,0.00
2018-08-10T01:06:03.292Z,0.00
2018-08-10T01:07:03.313Z,0.00
2018-08-10T01:08:03.384Z,0.00
2018-08-10T01:09:03.404Z,0.00
2018-08-10T01:10:03.661Z,0.00
2018-08-10T01:11:03.502Z,0.00
2018-08-10T01:12:03.564Z,0.00
2018-08-10T01:13:03.587Z,0.00
2018-08-10T01:14:03.634Z,0.00
2018-08-10T01:15:03.670Z,0.00
2018-08-10T01:16:03.709Z,0.00
2018-08-10T01:17:03.775Z,0.00
2018-08-10T01:18:03.806Z,0.00
2018-08-10T01:19:03.871Z,0.00
2018-08-10T01:20:03.887Z,0.00
2018-08-10T01:21:04.067Z,0.00
2018-08-10T01:22:03.982Z,0.00
2018-08-10T01:23:04.014Z,0.00
2018-08-10T01:24:04.054Z,0.00
2018-08-10T01:25:04.114Z,0.00
2018-08-10T01:26:04.135Z,0.00
2018-08-10T01:27:04.245Z,0.00
2018-08-10T01:28:04.236Z,0.00
2018-08-10T01:29:04.284Z,0.00
2018-08-10T01:30:04.313Z,0.00
2018-08-10T01:31:04.552Z,0.00
2018-08-10T01:32:04.397Z,0.00
2018-08-10T01:33:04.455Z,0.00
2018-08-10T01:34:04.517Z,0.00
2018-08-10T01:35:04.544Z,0.00
2018-08-10T01:36:04.794Z,0.00
2018-08-10T01:37:04.635Z,0.00
2018-08-10T01:38:04.652Z,0.00
2018-08-10T01:39:04.718Z,0.00
2018-08-10T01:40:04.758Z,0.00
2018-08-10T01:41:04.801Z,0.00
2018-08-10T01:42:04.878Z,0.00
2018-08-10T01:43:05.078Z,0.00
2018-08-10T01:44:04.917Z,0.00
2018-08-10T01:45:04.946Z,0.00
2018-08-10T01:46:05.013Z,0.00
2018-08-10T01:47:05.085Z,0.00
2018-08-10T01:48:05.101Z,0.00
2018-08-10T01:49:05.337Z,0.00
2018-08-10T01:50:05.181Z,0.00
2018-08-10T01:51:05.218Z,0.00
2018-08-10T01:52:05.279Z,0.00
2018-08-10T01:53:05.296Z,0.00
2018-08-10T01:54:05.407Z,0.00
2018-08-10T01:55:05.594Z,0.00
2018-08-10T01:56:05.445Z,0.00
2018-08-10T01:57:05.495Z,0.00
2018-08-10T01:58:05.503Z,0.00
2018-08-10T01:59:05.569Z,0.00
2018-08-10T02:00:05.802Z,0.00
2018-08-10T02:01:05.856Z,0.00
2018-08-10T02:02:05.686Z,0.00
2018-08-10T02:03:05.734Z,0.00
2018-08-10T02:04:05.802Z,0.00
2018-08-10T02:05:05.802Z,0.00
2018-08-10T02:06:06.018Z,0.00
2018-08-10T02:07:06.115Z,0.00
2018-08-10T02:08:05.958Z,0.00
2018-08-10T02:09:05.962Z,0.00
2018-08-10T02:10:06.035Z,0.00
2018-08-10T02:11:06.065Z,0.00
2018-08-10T02:12:06.120Z,0.00
2018-08-10T02:13:06.161Z,0.00
2018-08-10T02:14:06.239Z,0.00
2018-08-10T02:15:06.236Z,0.00
2018-08-10T02:16:06.316Z,0.00
2018-08-10T02:17:06.545Z,0.00
2018-08-10T02:18:06.347Z,0.00
2018-08-10T02:19:06.464Z,0.00
2018-08-10T02:20:06.462Z,0.00
2018-08-10T02:21:06.488Z,0.00
2018-08-10T02:22:06.754Z,0.00
2018-08-10T02:23:06.569Z,0.00
2018-08-10T02:24:06.649Z,0.00
2018-08-10T02:25:06.671Z,0.00
2018-08-10T02:26:06.699Z,0.00
2018-08-10T02:27:06.907Z,0.00
2018-08-10T02:28:06.800Z,0.00
2018-08-10T02:29:06.891Z,0.00
2018-08-10T02:30:06.896Z,0.00
2018-08-10T02:31:06.899Z,0.00
2018-08-10T02:32:07.168Z,0.00
2018-08-10T02:33:07.009Z,0.00
2018-08-10T02:34:07.028Z,0.00
2018-08-10T02:35:07.089Z,0.00
2018-08-10T02:36:07.158Z,0.00
2018-08-10T02:37:07.393Z,0.00
2018-08-10T02:38:07.222Z,0.00
2018-08-10T02:39:07.264Z,0.00
2018-08-10T02:40:07.285Z,0.00
2018-08-10T02:41:07.387Z,0.00
2018-08-10T02:42:07.395Z,0.00
2018-08-10T02:43:07.573Z,0.00
2018-08-10T02:44:07.472Z,0.00
2018-08-10T02:45:07.530Z,0.00
2018-08-10T02:46:07.577Z,0.00
2018-08-10T02:47:07.599Z,0.00
2018-08-10T02:48:07.867Z,0.00
2018-08-10T02:49:07.668Z,0.00
2018-08-10T02:50:07.715Z,0.00
2018-08-10T02:51:07.766Z,0.00
2018-08-10T02:52:07.803Z,0.00
2018-08-10T02:53:07.826Z,0.00
2018-08-10T02:54:08.029Z,0.00
2018-08-10T02:55:07.942Z,0.00
2018-08-10T02:56:07.967Z,0.00
2018-08-10T02:57:08.021Z,0.00
2018-08-10T02:58:08.163Z,0.00
2018-08-10T02:59:08.127Z,0.00
2018-08-10T03:00:08.145Z,0.00
2018-08-10T03:01:08.162Z,0.00
2018-08-10T03:02:08.217Z,0.00
2018-08-10T03:03:08.276Z,0.00
2018-08-10T03:04:08.293Z,0.00
2018-08-10T03:05:08.487Z,0.00
2018-08-10T03:06:08.383Z,0.00
2018-08-10T03:07:08.429Z,0.00
2018-08-10T03:08:08.486Z,0.00
2018-08-10T03:09:08.498Z,0.00
2018-08-10T03:10:08.542Z,0.00
2018-08-10T03:11:08.585Z,0.00
2018-08-10T03:12:08.809Z,0.00
2018-08-10T03:13:08.665Z,0.00
2018-08-10T03:14:08.743Z,0.00
2018-08-10T03:15:08.750Z,0.00
2018-08-10T03:16:08.806Z,0.00
2018-08-10T03:17:08.828Z,0.00
2018-08-10T03:18:08.897Z,0.00
2018-08-10T03:19:08.932Z,0.00
2018-08-10T03:20:08.959Z,0.00
2018-08-10T03:21:09.014Z,0.00
2018-08-10T03:22:09.357Z,0.00
2018-08-10T03:23:09.074Z,0.00
2018-08-10T03:24:09.115Z,0.00
2018-08-10T03:25:09.178Z,0.00
2018-08-10T03:26:09.204Z,0.00
2018-08-10T03:27:09.307Z,0.00
2018-08-10T03:28:09.503Z,0.00
2018-08-10T03:29:09.345Z,0.00
2018-08-10T03:30:09.385Z,0.00
2018-08-10T03:31:09.403Z,0.00
2018-08-10T03:32:09.475Z,0.00
2018-08-10T03:33:09.512Z,0.00
2018-08-10T03:34:09.735Z,0.00
2018-08-10T03:35:09.625Z,0.00
2018-08-10T03:36:09.621Z,0.00
2018-08-10T03:37:09.703Z,0.00
2018-08-10T03:38:09.710Z,0.00
2018-08-10T03:39:09.736Z,0.00
2018-08-10T03:40:09.809Z,0.00
2018-08-10T03:41:09.848Z,0.00
2018-08-10T03:42:09.869Z,0.00
2018-08-10T03:43:09.942Z,0.00
2018-08-10T03:44:10.161Z,0.00
2018-08-10T03:45:09.994Z,0.00
2018-08-10T03:46:10.033Z,0.00
2018-08-10T03:47:10.063Z,0.00
2018-08-10T03:48:10.143Z,0.00
2018-08-10T03:49:10.300Z,0.00
2018-08-10T03:50:10.194Z,0.00
2018-08-10T03:51:10.230Z,0.00
2018-08-10T03:52:10.267Z,0.00
2018-08-10T03:53:10.332Z,0.00
2018-08-10T03:54:10.369Z,0.00
2018-08-10T03:55:10.517Z,0.00
2018-08-10T03:56:10.432Z,0.00
2018-08-10T03:57:10.464Z,0.00
2018-08-10T03:58:10.513Z,0.00
2018-08-10T03:59:10.583Z,0.00
2018-08-10T04:00:10.621Z,0.00
2018-08-10T04:01:10.785Z,0.00
2018-08-10T04:02:10.668Z,0.00
2018-08-10T04:03:10.771Z,0.00
2018-08-10T04:04:10.767Z,0.00
2018-08-10T04:05:10.838Z,0.00
2018-08-10T04:06:10.860Z,0.00
2018-08-10T04:07:10.891Z,0.00
2018-08-10T04:08:10.988Z,0.00
2018-08-10T04:09:10.950Z,0.00
2018-08-10T04:10:11.014Z,0.00
2018-08-10T04:11:11.239Z,0.00
2018-08-10T04:12:11.143Z,0.00
2018-08-10T04:13:11.145Z,0.00
2018-08-10T04:14:11.200Z,0.00
2018-08-10T04:15:11.200Z,0.00
2018-08-10T04:16:11.247Z,0.00
2018-08-10T04:17:11.535Z,0.00
2018-08-10T04:18:11.330Z,0.00
2018-08-10T04:19:11.392Z,0.00
2018-08-10T04:20:11.414Z,0.00
2018-08-10T04:21:11.449Z,0.00
2018-08-10T04:22:11.689Z,0.00
2018-08-10T04:23:11.573Z,0.00
2018-08-10T04:24:11.585Z,0.00
2018-08-10T04:25:11.622Z,0.00
2018-08-10T04:26:11.658Z,0.00
2018-08-10T04:27:11.708Z,0.00
2018-08-10T04:28:11.945Z,0.00
2018-08-10T04:29:11.784Z,0.00
2018-08-10T04:30:11.813Z,0.00
2018-08-10T04:31:11.871Z,0.00
2018-08-10T04:32:11.909Z,0.00
2018-08-10T04:33:11.923Z,0.00
2018-08-10T04:34:11.980Z,0.00
2018-08-10T04:35:11.994Z,0.00
2018-08-10T04:36:12.072Z,0.00
2018-08-10T04:37:12.103Z,0.00
2018-08-10T04:38:12.393Z,0.00
2018-08-10T04:39:12.165Z,0.00
2018-08-10T04:40:12.219Z,0.00
2018-08-10T04:41:12.256Z,0.00
2018-08-10T04:42:12.327Z,0.00
2018-08-10T04:43:12.334Z,0.00
2018-08-10T04:44:12.400Z,0.00
2018-08-10T04:45:12.427Z,0.00
2018-08-10T04:46:12.465Z,0.00
2018-08-10T04:47:12.512Z,0.00
2018-08-10T04:48:12.828Z,0.00
2018-08-10T04:49:12.585Z,0.00
2018-08-10T04:50:12.621Z,0.00
2018-08-10T04:51:12.678Z,0.00
2018-08-10T04:52:12.775Z,0.00
2018-08-10T04:53:12.739Z,0.00
2018-08-10T04:54:12.795Z,0.00
2018-08-10T04:55:12.922Z,0.00
2018-08-10T04:56:12.861Z,0.00
2018-08-10T04:57:12.917Z,0.00
2018-08-10T04:58:12.972Z,0.00
2018-08-10T04:59:13.022Z,0.00
2018-08-10T05:00:13.175Z,0.00
2018-08-10T05:01:13.065Z,0.00
2018-08-10T05:02:13.135Z,0.00
2018-08-10T05:03:13.165Z,0.00
2018-08-10T05:04:13.188Z,0.00
2018-08-10T05:05:13.292Z,0.00
2018-08-10T05:06:13.281Z,0.00
2018-08-10T05:07:13.508Z,0.00
2018-08-10T05:08:13.399Z,0.00
2018-08-10T05:09:13.399Z,0.00
2018-08-10T05:10:13.436Z,0.00
2018-08-10T05:11:13.487Z,0.00
2018-08-10T05:12:13.724Z,0.00
2018-08-10T05:13:13.535Z,0.00
2018-08-10T05:14:13.580Z,0.00
2018-08-10T05:15:13.645Z,0.00
2018-08-10T05:16:13.675Z,0.00
2018-08-10T05:17:13.706Z,0.00
2018-08-10T05:18:13.751Z,0.00
2018-08-10T05:19:13.789Z,0.00
2018-08-10T05:20:13.853Z,0.00
2018-08-10T05:21:13.893Z,0.00
2018-08-10T05:22:14.118Z,0.00
2018-08-10T05:23:13.959Z,0.00
2018-08-10T05:24:13.994Z,0.00
2018-08-10T05:25:14.090Z,0.00
2018-08-10T05:26:14.088Z,0.00
2018-08-10T05:27:14.313Z,0.00
2018-08-10T05:28:14.204Z,0.00
2018-08-10T05:29:14.201Z,0.00
2018-08-10T05:30:14.263Z,0.00
2018-08-10T05:31:14.246Z,0.00
2018-08-10T05:32:14.351Z,0.00
2018-08-10T05:33:14.570Z,0.00
2018-08-10T05:34:14.392Z,0.00
2018-08-10T05:35:14.432Z,0.00
2018-08-10T05:36:14.473Z,0.00
2018-08-10T05:37:14.555Z,0.00
2018-08-10T05:38:14.750Z,0.00
2018-08-10T05:39:14.617Z,0.00
2018-08-10T05:40:14.640Z,0.00
2018-08-10T05:41:14.671Z,0.00
2018-08-10T05:42:14.723Z,0.00
2018-08-10T05:43:14.754Z,0.00
2018-08-10T05:44:14.997Z,0.00
2018-08-10T05:45:14.851Z,0.00
2018-08-10T05:46:14.938Z,0.00
2018-08-10T05:47:14.945Z,0.00
2018-08-10T05:48:14.966Z,0.00
2018-08-10T05:49:14.981Z,0.00
2018-08-10T05:50:15.065Z,0.00
2018-08-10T05:51:15.049Z,0.00
2018-08-10T05:52:15.114Z,0.00
2018-08-10T05:53:15.132Z,0.00
2018-08-10T05:54:15.404Z,0.00
2018-08-10T05:55:15.236Z,0.00
2018-08-10T05:56:15.272Z,0.00
2018-08-10T05:57:15.316Z,0.00
2018-08-10T05:58:15.362Z,0.00
2018-08-10T05:59:15.616Z,0.00
2018-08-10T06:00:15.419Z,0.00
2018-08-10T06:01:15.449Z,0.00
2018-08-10T06:02:15.495Z,0.00
2018-08-10T06:03:15.527Z,0.00
2018-08-10T06:04:15.601Z,0.00
2018-08-10T06:05:15.834Z,0.00
2018-08-10T06:06:15.684Z,0.00
2018-08-10T06:07:15.707Z,0.00
2018-08-10T06:08:15.741Z,0.00
2018-08-10T06:09:15.772Z,0.00
2018-08-10T06:10:16.027Z,0.00
2018-08-10T06:11:15.838Z,0.00
2018-08-10T06:12:15.894Z,0.00
2018-08-10T06:13:16.006Z,0.00
2018-08-10T06:14:15.968Z,0.00
2018-08-10T06:15:16.006Z,0.00
2018-08-10T06:16:16.272Z,0.00
2018-08-10T06:17:16.092Z,0.00
2018-08-10T06:18:16.126Z,0.00
2018-08-10T06:19:16.188Z,0.00
2018-08-10T06:20:16.224Z,0.00
2018-08-10T06:21:16.276Z,0.00
2018-08-10T06:22:16.312Z,0.00
2018-08-10T06:23:16.341Z,0.00
2018-08-10T06:24:16.348Z,0.00
2018-08-10T06:25:16.439Z,0.00
2018-08-10T06:26:16.697Z,0.00
2018-08-10T06:27:16.707Z,0.00
2018-08-10T06:28:16.605Z,0.00
2018-08-10T06:29:16.613Z,0.00
2018-08-10T06:30:16.610Z,0.00
2018-08-10T06:31:16.689Z,0.00
2018-08-10T06:32:16.692Z,0.00
2018-08-10T06:33:17.022Z,0.00
2018-08-10T06:34:16.896Z,0.00
2018-08-10T06:35:16.818Z,0.00
2018-08-10T06:36:16.849Z,0.00
2018-08-10T06:37:16.898Z,0.00
2018-08-10T06:38:17.117Z,0.00
2018-08-10T06:39:16.945Z,0.00
2018-08-10T06:40:17.001Z,0.00
2018-08-10T06:41:17.055Z,0.00
2018-08-10T06:42:17.093Z,0.00
2018-08-10T06:43:17.122Z,0.00
2018-08-10T06:44:17.416Z,0.00
2018-08-10T06:45:17.307Z,0.00
2018-08-10T06:46:17.215Z,0.00
2018-08-10T06:47:17.283Z,0.00
2018-08-10T06:48:17.299Z,0.00
2018-08-10T06:49:17.388Z,0.00
2018-08-10T06:50:17.638Z,0.00
2018-08-10T06:51:17.467Z,0.00
2018-08-10T06:52:17.475Z,0.00
2018-08-10T06:53:17.527Z,0.00
2018-08-10T06:54:17.564Z,0.00
2018-08-10T06:55:17.609Z,0.00
2018-08-10T06:56:17.885Z,0.00
2018-08-10T06:57:17.668Z,0.00
2018-08-10T06:58:17.704Z,0.00
2018-08-10T06:59:17.738Z,0.00
2018-08-10T07:00:17.811Z,0.00
2018-08-10T07:01:17.840Z,0.00
2018-08-10T07:02:18.082Z,0.00
2018-08-10T07:03:17.917Z,0.00
2018-08-10T07:04:17.991Z,0.00
2018-08-10T07:05:17.986Z,0.00
2018-08-10T07:06:18.015Z,0.00
2018-08-10T07:07:18.062Z,0.00
2018-08-10T07:08:18.316Z,0.00
2018-08-10T07:09:18.147Z,0.00
2018-08-10T07:10:18.197Z,0.00
2018-08-10T07:11:18.223Z,0.00
2018-08-10T07:12:18.251Z,0.00
2018-08-10T07:13:18.433Z,0.00
2018-08-10T07:14:18.336Z,0.00
2018-08-10T07:15:18.365Z,0.00
2018-08-10T07:16:18.408Z,0.00
2018-08-10T07:17:18.441Z,0.00
2018-08-10T07:18:18.724Z,0.00
2018-08-10T07:19:18.522Z,0.00
2018-08-10T07:20:18.568Z,0.00
2018-08-10T07:21:18.611Z,0.00
2018-08-10T07:22:18.670Z,0.00
2018-08-10T07:23:18.923Z,0.00
2018-08-10T07:24:18.730Z,0.00
2018-08-10T07:25:18.789Z,0.00
2018-08-10T07:26:18.823Z,0.00
2018-08-10T07:27:19.031Z,0.00
2018-08-10T07:28:18.879Z,0.00
2018-08-10T07:29:19.114Z,0.00
2018-08-10T07:30:18.963Z,0.00
2018-08-10T07:31:18.987Z,0.00
2018-08-10T07:32:19.088Z,0.00
2018-08-10T07:33:19.068Z,0.00
2018-08-10T07:34:19.167Z,0.00
2018-08-10T07:35:19.355Z,0.00
2018-08-10T07:36:19.180Z,0.00
2018-08-10T07:37:19.233Z,0.00
2018-08-10T07:38:19.243Z,0.00
2018-08-10T07:39:19.294Z,0.00
2018-08-10T07:40:19.351Z,0.00
2018-08-10T07:41:19.386Z,0.00
2018-08-10T07:42:19.451Z,0.00
2018-08-10T07:43:19.445Z,0.00
2018-08-10T07:44:19.517Z,0.00
2018-08-10T07:45:19.691Z,0.00
2018-08-10T07:46:19.796Z,0.00
2018-08-10T07:47:19.641Z,0.00
2018-08-10T07:48:19.655Z,0.00
2018-08-10T07:49:19.712Z,0.00
2018-08-10T07:50:19.719Z,0.00
2018-08-10T07:51:19.755Z,0.00
2018-08-10T07:52:20.127Z,0.00
2018-08-10T07:53:19.877Z,0.00
2018-08-10T07:54:19.888Z,0.00
2018-08-10T07:55:19.920Z,0.00
2018-08-10T07:56:19.968Z,0.00
2018-08-10T07:57:20.258Z,0.00
2018-08-10T07:58:20.049Z,0.00
2018-08-10T07:59:20.068Z,0.00
2018-08-10T08:00:20.102Z,0.00
2018-08-10T08:01:20.162Z,0.00
2018-08-10T08:02:20.219Z,0.00
2018-08-10T08:03:20.292Z,0.00
2018-08-10T08:04:20.270Z,0.00
2018-08-10T08:05:20.308Z,0.00
2018-08-10T08:06:20.347Z,0.00
2018-08-10T08:07:20.385Z,0.00
2018-08-10T08:08:20.640Z,0.00
2018-08-10T08:09:20.676Z,0.00
2018-08-10T08:10:20.525Z,0.00
2018-08-10T08:11:20.525Z,0.00
2018-08-10T08:12:20.581Z,0.00
2018-08-10T08:13:20.620Z,0.00
2018-08-10T08:14:20.672Z,0.00
2018-08-10T08:15:20.899Z,0.00
2018-08-10T08:16:20.710Z,0.00
2018-08-10T08:17:20.757Z,0.00
2018-08-10T08:18:20.823Z,0.00
2018-08-10T08:19:20.880Z,0.00
2018-08-10T08:20:20.905Z,0.00
2018-08-10T08:21:21.072Z,0.00
2018-08-10T08:22:20.948Z,0.00
2018-08-10T08:23:20.992Z,0.00
2018-08-10T08:24:21.053Z,0.00
2018-08-10T08:25:21.076Z,0.00
2018-08-10T08:26:21.166Z,0.00
2018-08-10T08:27:21.390Z,0.00
2018-08-10T08:28:21.186Z,0.00
2018-08-10T08:29:21.234Z,0.00
2018-08-10T08:30:21.263Z,0.00
2018-08-10T08:31:21.323Z,0.00
2018-08-10T08:32:21.580Z,0.00
2018-08-10T08:33:21.397Z,0.00
2018-08-10T08:34:21.458Z,0.00
2018-08-10T08:35:21.474Z,0.00
2018-08-10T08:36:21.480Z,0.00
2018-08-10T08:37:21.530Z,0.00
2018-08-10T08:38:21.644Z,0.00
2018-08-10T08:39:21.613Z,0.00
2018-08-10T08:40:21.659Z,0.00
2018-08-10T08:41:21.695Z,0.00
2018-08-10T08:42:21.741Z,0.00
2018-08-10T08:43:21.985Z,0.00
2018-08-10T08:44:21.834Z,0.00
2018-08-10T08:45:22.045Z,0.00
2018-08-10T08:46:22.093Z,0.00
2018-08-10T08:47:21.937Z,0.00
2018-08-10T08:48:21.973Z,0.00
2018-08-10T08:49:22.000Z,0.00
2018-08-10T08:50:22.086Z,0.00
2018-08-10T08:51:22.071Z,0.00
2018-08-10T08:52:22.143Z,0.00
2018-08-10T08:53:22.309Z,0.00
2018-08-10T08:54:22.194Z,0.00
2018-08-10T08:55:22.225Z,0.00
2018-08-10T08:56:22.268Z,0.00
2018-08-10T08:57:22.442Z,0.00
2018-08-10T08:58:22.346Z,0.00
2018-08-10T08:59:22.581Z,0.00
2018-08-10T09:00:22.469Z,0.00
2018-08-10T09:01:22.482Z,0.00
2018-08-10T09:02:22.547Z,0.00
2018-08-10T09:03:22.567Z,0.00
2018-08-10T09:04:22.592Z,0.00
2018-08-10T09:05:22.794Z,0.00
2018-08-10T09:06:22.651Z,0.00
2018-08-10T09:07:22.772Z,0.00
2018-08-10T09:08:22.727Z,0.00
2018-08-10T09:09:22.765Z,0.00
2018-08-10T09:10:22.811Z,0.00
2018-08-10T09:11:22.841Z,0.00
2018-08-10T09:12:22.880Z,4.00
2018-08-10T09:13:22.914Z,0.00
2018-08-10T09:14:23.034Z,4.00
2018-08-10T09:15:23.218Z,4.00
2018-08-10T09:16:23.030Z,4.00
2018-08-10T09:17:23.129Z,8.00
2018-08-10T09:18:23.112Z,12.00
2018-08-10T09:19:23.153Z,12.00
2018-08-10T09:20:23.442Z,20.00
2018-08-10T09:21:23.227Z,24.00
2018-08-10T09:22:23.271Z,28.00
2018-08-10T09:23:23.320Z,40.00
2018-08-10T09:24:23.377Z,52.00
2018-08-10T09:25:23.399Z,68.00
2018-08-10T09:26:23.698Z,88.00
2018-08-10T09:27:23.480Z,112.00
2018-08-10T09:28:23.490Z,136.00
2018-08-10T09:29:23.546Z,168.00
2018-08-10T09:30:23.549Z,204.00
2018-08-10T09:31:23.760Z,244.00
2018-08-10T09:32:23.631Z,288.00
2018-08-10T09:33:23.688Z,336.00
2018-08-10T09:34:23.780Z,396.00
2018-08-10T09:35:23.753Z,448.00
2018-08-10T09:36:23.772Z,504.00
2018-08-10T09:37:24.020Z,572.00
2018-08-10T09:38:23.857Z,628.00
2018-08-10T09:39:23.916Z,700.00
2018-08-10T09:40:23.983Z,776.00
2018-08-10T09:41:23.985Z,852.00
2018-08-10T09:42:24.035Z,924.00
2018-08-10T09:43:24.063Z,1000.00
2018-08-10T09:44:24.100Z,1088.00
2018-08-10T09:45:24.254Z,1164.00
2018-08-10T09:46:24.173Z,1240.00
2018-08-10T09:47:24.199Z,1316.00
2018-08-10T09:48:24.438Z,1396.00
2018-08-10T09:49:24.301Z,1508.00
2018-08-10T09:50:24.340Z,1592.00
2018-08-10T09:51:24.353Z,1660.00
2018-08-10T09:52:24.383Z,1756.00
2018-08-10T09:53:24.671Z,1848.00
2018-08-10T09:54:24.482Z,1924.00
2018-08-10T09:55:24.503Z,2008.00
2018-08-10T09:56:24.558Z,2128.00
2018-08-10T09:57:24.605Z,2160.00
2018-08-10T09:58:24.636Z,2264.00
2018-08-10T09:59:24.883Z,2380.00
2018-08-10T10:00:24.690Z,2440.00
2018-08-10T10:01:24.708Z,2552.00
2018-08-10T10:02:24.791Z,2732.00
2018-08-10T10:03:24.841Z,2756.00
2018-08-10T10:04:24.860Z,2860.00
2018-08-10T10:05:24.915Z,3212.00
2018-08-10T10:06:24.913Z,4384.00
2018-08-10T10:07:24.962Z,3076.00
2018-08-10T10:08:25.004Z,6676.00
2018-08-10T10:09:25.045Z,5760.00
2018-08-10T10:10:25.300Z,6504.00
2018-08-10T10:11:25.138Z,9348.00
2018-08-10T10:12:25.205Z,10676.00
2018-08-10T10:13:25.207Z,9380.00
2018-08-10T10:14:25.289Z,4792.00
2018-08-10T10:15:25.272Z,5656.00
2018-08-10T10:16:25.295Z,5468.00
2018-08-10T10:17:25.399Z,4660.00
2018-08-10T10:18:25.439Z,4452.00
2018-08-10T10:19:25.407Z,4420.00
2018-08-10T10:20:25.720Z,5056.00
2018-08-10T10:21:25.502Z,4804.00
2018-08-10T10:22:25.548Z,6388.00
2018-08-10T10:23:25.577Z,5996.00
2018-08-10T10:24:25.665Z,6072.00
2018-08-10T10:25:25.668Z,8492.00
2018-08-10T10:26:25.681Z,6324.00
2018-08-10T10:27:25.739Z,8580.00
2018-08-10T10:28:25.810Z,6968.00
2018-08-10T10:29:25.797Z,6668.00
2018-08-10T10:30:25.869Z,10012.00
2018-08-10T10:31:25.890Z,6468.00
2018-08-10T10:32:25.940Z,6796.00
2018-08-10T10:33:25.971Z,8768.00
2018-08-10T10:34:26.018Z,37536.00
2018-08-10T10:35:26.073Z,7496.00
2018-08-10T10:36:26.237Z,14228.00
2018-08-10T10:37:26.134Z,7564.00
2018-08-10T10:38:26.202Z,10088.00
2018-08-10T10:39:26.220Z,8812.00
2018-08-10T10:40:26.281Z,39104.00
2018-08-10T10:41:26.318Z,11492.00
2018-08-10T10:42:26.339Z,15540.00
2018-08-10T10:43:26.376Z,7772.00
2018-08-10T10:44:26.400Z,46496.00
2018-08-10T10:45:26.453Z,45824.00
2018-08-10T10:46:26.667Z,43168.00
2018-08-10T10:47:26.804Z,46080.00
2018-08-10T10:48:26.551Z,42688.00
2018-08-10T10:49:26.610Z,30944.00
2018-08-10T10:50:26.677Z,13476.00
2018-08-10T10:51:26.699Z,48064.00
2018-08-10T10:52:26.752Z,48704.00
2018-08-10T10:53:26.775Z,31776.00
2018-08-10T10:54:26.846Z,49536.00
2018-08-10T10:55:26.909Z,25824.00
2018-08-10T10:56:26.960Z,50464.00
2018-08-10T10:57:27.136Z,43552.00
2018-08-10T10:58:26.987Z,40448.00
2018-08-10T10:59:27.044Z,39328.00
2018-08-10T11:00:27.039Z,51008.00
2018-08-10T11:01:27.130Z,14460.00
2018-08-10T11:02:27.154Z,14888.00
2018-08-10T11:03:27.199Z,50112.00
2018-08-10T11:04:27.241Z,15112.00
2018-08-10T11:05:27.279Z,58944.00
2018-08-10T11:06:27.369Z,27456.00
2018-08-10T11:07:27.351Z,36128.00
2018-08-10T11:08:27.418Z,60640.00
2018-08-10T11:09:27.432Z,61312.00
2018-08-10T11:10:27.508Z,34848.00
2018-08-10T11:11:27.578Z,60192.00
2018-08-10T11:12:27.794Z,62208.00
2018-08-10T11:13:27.613Z,12812.00
2018-08-10T11:14:27.730Z,62880.00
2018-08-10T11:15:27.766Z,23136.00
2018-08-10T11:16:27.775Z,15984.00
2018-08-10T11:17:27.797Z,13596.00
2018-08-10T11:18:27.846Z,13888.00
2018-08-10T11:19:27.889Z,62400.00
2018-08-10T11:20:27.961Z,25792.00
2018-08-10T11:21:27.986Z,33440.00
2018-08-10T11:22:28.041Z,12568.00
2018-08-10T11:23:28.084Z,59136.00
2018-08-10T11:24:28.130Z,64736.00
2018-08-10T11:25:28.532Z,18400.00
2018-08-10T11:26:28.227Z,12436.00
2018-08-10T11:27:28.249Z,10584.00
2018-08-10T11:28:28.275Z,15712.00
2018-08-10T11:29:28.318Z,64896.00
2018-08-10T11:30:28.433Z,37312.00
2018-08-10T11:31:28.669Z,59136.00
2018-08-10T11:32:28.488Z,44384.00
2018-08-10T11:33:28.532Z,65248.00
2018-08-10T11:34:28.548Z,13508.00
2018-08-10T11:35:28.586Z,62400.00
2018-08-10T11:36:28.660Z,46656.00
2018-08-10T11:37:28.747Z,62880.00
2018-08-10T11:38:28.738Z,63680.00
2018-08-10T11:39:28.771Z,66496.00
2018-08-10T11:40:28.851Z,12812.00
2018-08-10T11:41:29.192Z,9840.00
2018-08-10T11:42:28.951Z,66464.00
2018-08-10T11:43:29.003Z,15716.00
2018-08-10T11:44:29.037Z,70528.00
2018-08-10T11:45:29.052Z,66144.00
2018-08-10T11:46:29.181Z,66208.00
2018-08-10T11:47:29.361Z,66272.00
2018-08-10T11:48:29.239Z,68608.00
2018-08-10T11:49:29.271Z,69376.00
2018-08-10T11:50:29.307Z,69856.00
2018-08-10T11:51:29.383Z,66240.00
2018-08-10T11:52:29.459Z,12276.00
2018-08-10T11:53:29.646Z,14516.00
2018-08-10T11:54:29.501Z,18880.00
2018-08-10T11:55:29.526Z,58848.00
2018-08-10T11:56:29.646Z,68544.00
2018-08-10T11:57:29.716Z,68800.00
2018-08-10T11:58:29.882Z,56800.00
2018-08-10T11:59:29.872Z,62720.00
2018-08-10T12:00:29.769Z,75456.00
2018-08-10T12:01:30.069Z,79136.00
2018-08-10T12:02:29.880Z,74368.00
2018-08-10T12:03:29.897Z,73952.00
2018-08-10T12:04:29.994Z,13092.00
2018-08-10T12:05:30.239Z,73728.00
2018-08-10T12:06:30.058Z,75520.00
2018-08-10T12:07:30.102Z,75264.00
2018-08-10T12:08:30.149Z,74464.00
2018-08-10T12:09:30.236Z,68384.00
2018-08-10T12:10:30.260Z,65664.00
2018-08-10T12:11:30.331Z,62496.00
2018-08-10T12:12:30.394Z,76992.00
2018-08-10T12:13:30.426Z,43616.00
2018-08-10T12:14:30.444Z,67680.00
2018-08-10T12:15:30.494Z,73440.00
2018-08-10T12:16:30.554Z,75712.00
2018-08-10T12:17:30.816Z,60992.00
2018-08-10T12:18:30.639Z,73664.00
2018-08-10T12:19:30.677Z,73088.00
2018-08-10T12:20:30.742Z,69664.00
2018-08-10T12:21:30.795Z,73312.00
2018-08-10T12:22:30.875Z,77952.00
2018-08-10T12:23:31.081Z,79328.00
2018-08-10T12:24:30.942Z,83808.00
2018-08-10T12:25:31.008Z,90848.00
2018-08-10T12:26:31.017Z,93696.00
2018-08-10T12:27:31.106Z,92576.00
2018-08-10T12:28:31.140Z,95392.00
2018-08-10T12:29:31.156Z,94208.00
2018-08-10T12:30:31.209Z,96992.00
2018-08-10T12:31:31.303Z,99552.00
2018-08-10T12:32:31.336Z,94592.00
2018-08-10T12:33:31.796Z,85120.00
2018-08-10T12:34:31.429Z,86752.00
2018-08-10T12:35:31.540Z,88064.00
2018-08-10T12:36:31.507Z,87168.00
2018-08-10T12:37:31.590Z,60768.00
2018-08-10T12:38:31.844Z,85984.00
2018-08-10T12:39:31.689Z,83808.00
2018-08-10T12:40:31.721Z,83520.00
2018-08-10T12:41:31.802Z,81920.00
2018-08-10T12:42:31.836Z,77248.00
2018-08-10T12:43:32.092Z,74240.00
2018-08-10T12:44:31.942Z,69376.00
2018-08-10T12:45:31.978Z,67488.00
2018-08-10T12:46:32.140Z,68608.00
2018-08-10T12:47:32.068Z,65952.00
2018-08-10T12:48:32.138Z,60096.00
2018-08-10T12:49:32.376Z,59776.00
2018-08-10T12:50:32.442Z,31552.00
2018-08-10T12:51:32.289Z,66592.00
2018-08-10T12:52:32.344Z,61824.00
2018-08-10T12:53:32.415Z,59008.00